createdAt,value
2018-12-18T00:01:45.192Z,63.20
2018-12-18T00:04:13.329Z,58.63
2018-12-18T00:06:41.488Z,48.60
2018-12-18T00:09:10.075Z,50.37
2018-12-18T00:11:38.273Z,56.93
2018-12-18T00:14:06.454Z,61.87
2018-12-18T00:16:34.568Z,66.03
2018-12-18T00:19:02.813Z,69.30
2018-12-18T00:21:30.959Z,62.93
2018-12-18T00:23:59.504Z,68.07
2018-12-18T00:26:27.623Z,81.53
2018-12-18T00:28:55.771Z,78.93
2018-12-18T00:31:23.926Z,81.70
2018-12-18T00:33:52.122Z,87.47
2018-12-18T00:36:20.279Z,97.63
2018-12-18T00:38:48.389Z,97.37
2018-12-18T00:41:17.257Z,88.17
2018-12-18T00:43:45.432Z,102.10
2018-12-18T00:46:13.699Z,103.97
2018-12-18T00:48:41.940Z,103.43
2018-12-18T00:51:10.229Z,113.47
2018-12-18T00:53:38.332Z,112.77
2018-12-18T00:56:07.010Z,115.27
2018-12-18T00:58:35.193Z,106.63
2018-12-18T01:01:03.360Z,135.20
2018-12-18T01:03:31.476Z,121.47
2018-12-18T01:05:59.628Z,111.93
2018-12-18T01:08:27.796Z,122.70
2018-12-18T01:10:55.987Z,125.93
2018-12-18T01:13:24.217Z,126.87
2018-12-18T01:15:52.466Z,117.77
2018-12-18T01:18:20.681Z,129.97
2018-12-18T01:20:48.924Z,135.23
2018-12-18T01:23:17.129Z,115.77
2018-12-18T01:25:45.476Z,129.07
2018-12-18T01:28:13.606Z,106.33
2018-12-18T01:30:41.751Z,106.80
2018-12-18T01:33:09.972Z,102.33
2018-12-18T01:35:38.183Z,104.53
2018-12-18T01:38:06.401Z,104.60
2018-12-18T01:40:34.570Z,103.10
2018-12-18T01:43:02.707Z,94.60
2018-12-18T01:45:31.033Z,105.40
2018-12-18T01:47:59.176Z,97.13
2018-12-18T01:50:27.384Z,101.50
2018-12-18T01:52:55.524Z,95.53
2018-12-18T01:55:23.688Z,96.40
2018-12-18T01:57:51.850Z,95.67
2018-12-18T02:00:20.021Z,86.93
2018-12-18T02:02:48.117Z,87.67
2018-12-18T02:05:16.219Z,86.50
2018-12-18T02:07:44.322Z,97.30
2018-12-18T02:10:12.476Z,86.90
2018-12-18T02:12:40.611Z,81.90
2018-12-18T02:15:08.730Z,80.53
2018-12-18T02:17:36.927Z,90.90
2018-12-18T02:20:05.594Z,80.77
2018-12-18T02:22:33.777Z,82.57
2018-12-18T02:25:01.882Z,83.00
2018-12-18T02:27:30.029Z,81.47
2018-12-18T02:29:58.134Z,75.57
2018-12-18T02:32:26.243Z,90.63
2018-12-18T02:34:54.341Z,91.27
2018-12-18T02:37:22.440Z,90.80
2018-12-18T02:39:50.540Z,87.07
2018-12-18T02:42:18.638Z,84.80
2018-12-18T02:44:46.848Z,79.13
2018-12-18T02:47:15.035Z,78.90
2018-12-18T02:49:43.192Z,81.53
2018-12-18T02:52:11.352Z,84.53
2018-12-18T02:54:39.505Z,82.47
2018-12-18T02:57:07.599Z,84.73
2018-12-18T02:59:35.764Z,80.47
2018-12-18T03:02:03.884Z,74.17
2018-12-18T03:04:32.042Z,71.40
2018-12-18T03:07:00.395Z,72.10
2018-12-18T03:09:28.598Z,62.60
2018-12-18T03:11:57.169Z,64.87
2018-12-18T03:14:25.326Z,72.20
2018-12-18T03:16:53.516Z,76.53
2018-12-18T03:19:21.668Z,82.83
2018-12-18T03:21:49.767Z,81.70
2018-12-18T03:24:17.930Z,83.23
2018-12-18T03:26:46.162Z,99.97
2018-12-18T03:29:14.472Z,83.40
2018-12-18T03:31:46.047Z,88.33
2018-12-18T03:34:14.142Z,95.47
2018-12-18T03:36:42.265Z,91.53
2018-12-18T03:39:10.493Z,78.63
2018-12-18T03:41:38.638Z,101.50
2018-12-18T03:44:06.812Z,87.87
2018-12-18T03:46:34.984Z,85.60
2018-12-18T03:49:03.128Z,87.07
2018-12-18T03:51:31.329Z,83.13
2018-12-18T03:53:59.488Z,85.60
2018-12-18T03:56:27.682Z,85.47
2018-12-18T03:58:55.829Z,86.67
2018-12-18T04:01:23.931Z,92.43
2018-12-18T04:03:52.079Z,85.73
2018-12-18T04:06:20.228Z,93.73
2018-12-18T04:08:48.357Z,88.93
2018-12-18T04:11:16.572Z,85.30
2018-12-18T04:13:44.742Z,89.77
2018-12-18T04:16:12.959Z,96.50
2018-12-18T04:18:41.130Z,83.20
2018-12-18T04:21:09.268Z,87.37
2018-12-18T04:23:37.374Z,91.73
2018-12-18T04:26:05.516Z,88.90
2018-12-18T04:28:33.704Z,93.20
2018-12-18T04:31:01.886Z,96.10
2018-12-18T04:33:30.061Z,91.13
2018-12-18T04:35:58.183Z,92.00
2018-12-18T04:38:26.414Z,86.30
2018-12-18T04:40:54.584Z,98.60
2018-12-18T04:43:22.681Z,91.67
2018-12-18T04:45:50.954Z,93.30
2018-12-18T04:48:19.065Z,84.47
2018-12-18T04:50:47.280Z,92.73
2018-12-18T04:53:15.463Z,87.33
2018-12-18T04:55:43.660Z,93.40
2018-12-18T04:58:11.781Z,88.27
2018-12-18T05:00:39.881Z,88.43
2018-12-18T05:03:08.017Z,96.97
2018-12-18T05:05:36.186Z,84.17
2018-12-18T05:08:04.293Z,76.67
2018-12-18T05:10:32.385Z,79.97
2018-12-18T05:13:00.544Z,84.83
2018-12-18T05:15:28.701Z,76.10
2018-12-18T05:17:56.793Z,72.20
2018-12-18T05:35:57.394Z,75.77
2018-12-18T05:38:25.597Z,73.40
2018-12-18T05:40:53.748Z,71.03
2018-12-18T05:43:21.939Z,76.67
2018-12-18T05:45:50.114Z,69.13
2018-12-18T05:48:18.282Z,74.20
2018-12-18T05:50:46.420Z,77.93
2018-12-18T05:53:14.622Z,70.30
2018-12-18T05:55:42.777Z,62.37
2018-12-18T05:58:10.976Z,75.10
2018-12-18T06:00:39.096Z,68.23
2018-12-18T06:03:07.210Z,70.53
2018-12-18T06:05:35.412Z,71.90
2018-12-18T06:08:03.553Z,57.40
2018-12-18T06:10:31.664Z,61.23
2018-12-18T06:12:59.792Z,57.87
2018-12-18T06:15:27.995Z,58.20
2018-12-18T06:17:56.187Z,50.73
2018-12-18T06:20:24.328Z,44.17
2018-12-18T06:22:52.472Z,52.43
2018-12-18T06:25:20.572Z,50.73
2018-12-18T06:27:48.668Z,56.70
2018-12-18T06:30:16.817Z,45.80
2018-12-18T06:32:44.966Z,47.03
2018-12-18T06:35:13.168Z,51.30
2018-12-18T06:37:41.358Z,46.63
2018-12-18T06:40:09.472Z,52.83
2018-12-18T06:42:37.576Z,46.17
2018-12-18T06:45:05.839Z,44.40
2018-12-18T06:47:33.940Z,45.30
2018-12-18T06:50:02.127Z,45.40
2018-12-18T06:52:30.490Z,37.93
2018-12-18T06:54:58.660Z,43.20
2018-12-18T06:57:26.756Z,40.20
2018-12-18T06:59:54.896Z,38.70
2018-12-18T07:02:23.118Z,39.97
2018-12-18T07:04:51.258Z,40.33
2018-12-18T07:07:19.420Z,34.33
2018-12-18T07:09:47.539Z,35.77
2018-12-18T07:12:15.839Z,36.87
2018-12-18T07:14:43.940Z,38.07
2018-12-18T07:17:12.089Z,34.47
2018-12-18T07:19:40.301Z,39.77
2018-12-18T07:22:08.439Z,42.23
2018-12-18T07:24:36.538Z,49.87
2018-12-18T07:27:04.709Z,47.00
2018-12-18T07:29:32.982Z,44.83
2018-12-18T07:32:01.130Z,45.10
2018-12-18T07:34:33.390Z,61.13
2018-12-18T07:36:59.424Z,50.73
2018-12-18T07:39:27.608Z,57.20
2018-12-18T07:41:55.721Z,59.43
2018-12-18T07:44:23.853Z,56.27
2018-12-18T07:46:52.024Z,61.33
2018-12-18T07:49:20.213Z,58.40
2018-12-18T07:51:48.416Z,57.33
2018-12-18T07:54:16.610Z,49.10
2018-12-18T07:56:44.767Z,51.40
2018-12-18T07:59:12.949Z,55.53
2018-12-18T08:01:41.088Z,57.43
2018-12-18T08:04:09.232Z,50.27
2018-12-18T08:06:37.451Z,50.33
2018-12-18T08:09:06.861Z,52.40
2018-12-18T08:11:35.010Z,50.63
2018-12-18T08:14:03.232Z,56.20
2018-12-18T08:16:31.357Z,59.67
2018-12-18T08:18:59.557Z,52.93
2018-12-18T08:21:27.736Z,63.73
2018-12-18T08:23:55.905Z,55.00
2018-12-18T08:26:24.037Z,53.50
2018-12-18T08:28:52.174Z,51.73
2018-12-18T08:31:20.289Z,51.77
2018-12-18T08:33:48.515Z,51.57
2018-12-18T08:36:16.737Z,44.23
2018-12-18T08:38:44.947Z,44.73
2018-12-18T08:41:13.099Z,44.37
2018-12-18T08:43:41.304Z,48.47
2018-12-18T08:46:10.384Z,44.17
2018-12-18T08:48:38.802Z,42.27
2018-12-18T08:51:06.929Z,44.20
2018-12-18T08:53:35.153Z,46.17
2018-12-18T08:56:03.318Z,39.57
2018-12-18T08:58:31.490Z,43.50
2018-12-18T09:00:59.700Z,41.63
2018-12-18T09:03:28.009Z,44.77
2018-12-18T09:05:56.171Z,41.87
2018-12-18T09:08:24.389Z,39.63
2018-12-18T09:10:52.553Z,43.23
2018-12-18T09:13:20.767Z,39.17
2018-12-18T09:15:57.623Z,39.07
2018-12-18T09:18:25.754Z,42.03
2018-12-18T09:20:53.944Z,44.20
2018-12-18T09:23:22.177Z,47.13
2018-12-18T09:25:50.281Z,47.57
2018-12-18T09:28:18.461Z,44.33
2018-12-18T09:30:46.612Z,36.53
2018-12-18T09:33:14.817Z,38.60
2018-12-18T09:35:49.560Z,38.00
2018-12-18T09:38:18.821Z,31.73
2018-12-18T09:40:52.518Z,32.80
2018-12-18T09:43:26.144Z,35.37
2018-12-18T09:45:54.327Z,33.43
2018-12-18T09:48:22.446Z,33.77
2018-12-18T09:50:50.589Z,34.53
2018-12-18T09:53:18.944Z,29.03
2018-12-18T09:55:47.051Z,34.07
2018-12-18T09:58:15.215Z,28.87
2018-12-18T10:00:43.350Z,32.43
2018-12-18T10:03:11.522Z,29.23
2018-12-18T10:05:39.689Z,29.37
2018-12-18T10:08:07.913Z,24.30
2018-12-18T10:10:36.049Z,27.27
2018-12-18T10:13:04.231Z,32.90
2018-12-18T10:15:32.359Z,30.20
2018-12-18T10:18:00.573Z,35.07
2018-12-18T10:20:28.785Z,34.70
2018-12-18T10:22:56.993Z,32.07
2018-12-18T10:25:25.174Z,34.17
2018-12-18T10:27:53.354Z,36.63
2018-12-18T10:30:21.510Z,28.30
2018-12-18T10:32:49.709Z,31.63
2018-12-18T10:35:17.870Z,32.73
2018-12-18T10:37:45.980Z,24.77
2018-12-18T10:40:14.131Z,29.30
2018-12-18T10:42:42.329Z,28.30
2018-12-18T10:45:13.831Z,26.73
2018-12-18T10:47:42.161Z,27.70
2018-12-18T10:50:10.279Z,27.20
2018-12-18T10:52:38.401Z,30.70
2018-12-18T10:55:06.768Z,25.33
2018-12-18T10:57:34.932Z,25.03
2018-12-18T11:00:03.604Z,21.30
2018-12-18T11:02:31.764Z,24.43
2018-12-18T11:04:59.906Z,24.67
2018-12-18T11:07:28.031Z,23.70
2018-12-18T11:09:56.210Z,22.80
2018-12-18T11:12:30.111Z,21.20
2018-12-18T11:14:58.309Z,26.40
2018-12-18T11:17:26.474Z,23.83
2018-12-18T11:19:54.614Z,22.40
2018-12-18T11:22:22.831Z,21.70
2018-12-18T11:24:50.992Z,21.97
2018-12-18T11:27:19.132Z,22.50
2018-12-18T11:29:47.333Z,22.23
2018-12-18T11:32:15.989Z,24.40
2018-12-18T11:34:44.209Z,24.90
2018-12-18T11:37:12.353Z,21.80
2018-12-18T11:39:41.164Z,27.30
2018-12-18T11:42:09.336Z,22.43
2018-12-18T11:44:37.505Z,28.20
2018-12-18T11:47:05.643Z,20.63
2018-12-18T11:49:33.837Z,23.97
2018-12-18T11:52:02.063Z,21.33
2018-12-18T11:54:30.218Z,25.20
2018-12-18T11:56:58.397Z,23.57
2018-12-18T11:59:26.715Z,17.43
2018-12-18T12:01:54.845Z,16.83
2018-12-18T12:04:22.964Z,22.73
2018-12-18T12:06:51.097Z,19.63
2018-12-18T12:09:19.352Z,18.77
2018-12-18T12:11:47.471Z,15.43
2018-12-18T12:14:15.596Z,20.17
2018-12-18T12:16:43.760Z,14.13
2018-12-18T12:19:11.878Z,20.30
2018-12-18T12:21:39.982Z,14.33
2018-12-18T12:24:08.177Z,16.50
2018-12-18T12:26:36.346Z,15.10
2018-12-18T12:29:04.449Z,11.67
2018-12-18T12:31:32.628Z,13.90
2018-12-18T12:34:01.121Z,14.40
2018-12-18T12:36:29.880Z,12.90
2018-12-18T12:38:58.936Z,10.73
2018-12-18T12:41:27.141Z,15.07
2018-12-18T12:43:55.285Z,10.33
2018-12-18T12:46:23.407Z,12.20
2018-12-18T12:48:55.786Z,14.73
2018-12-18T12:51:24.048Z,14.47
2018-12-18T12:53:52.280Z,12.73
2018-12-18T12:56:20.410Z,9.63
2018-12-18T12:58:48.576Z,12.73
2018-12-18T13:01:16.707Z,13.27
2018-12-18T13:03:44.924Z,14.23
2018-12-18T13:06:13.050Z,11.80
2018-12-18T13:08:41.243Z,12.47
2018-12-18T13:11:09.409Z,11.77
2018-12-18T13:13:37.565Z,10.23
2018-12-18T13:16:05.791Z,8.80
2018-12-18T13:18:34.172Z,11.60
2018-12-18T13:21:02.306Z,11.23
2018-12-18T13:23:30.417Z,11.10
2018-12-18T13:25:58.605Z,12.03
2018-12-18T13:28:27.033Z,13.33
2018-12-18T13:30:55.165Z,10.30
2018-12-18T13:33:23.407Z,14.60
2018-12-18T13:35:51.557Z,8.23
2018-12-18T13:38:19.696Z,9.00
2018-12-18T13:40:47.838Z,15.43
2018-12-18T13:43:15.961Z,10.83
2018-12-18T13:45:44.087Z,11.67
2018-12-18T13:48:12.242Z,14.87
2018-12-18T13:50:40.461Z,10.60
2018-12-18T13:53:08.661Z,9.70
2018-12-18T13:55:36.892Z,10.20
2018-12-18T13:58:05.027Z,12.17
2018-12-18T14:00:33.212Z,10.97
2018-12-18T14:03:02.127Z,9.53
2018-12-18T14:05:30.501Z,10.47
2018-12-18T14:07:58.647Z,8.77
2018-12-18T14:10:26.850Z,10.83
2018-12-18T14:12:56.991Z,8.20
2018-12-18T14:15:25.539Z,11.77
2018-12-18T14:17:54.166Z,13.43
2018-12-18T14:20:22.370Z,12.07
2018-12-18T14:22:50.574Z,9.67
2018-12-18T14:25:19.564Z,9.53
2018-12-18T14:27:47.707Z,10.30
2018-12-18T14:30:16.516Z,9.80
2018-12-18T14:32:44.699Z,11.93
2018-12-18T14:35:12.810Z,10.73
2018-12-18T14:37:40.946Z,10.43
2018-12-18T14:40:09.128Z,8.83
2018-12-18T14:42:37.271Z,11.33
2018-12-18T14:45:05.708Z,9.60
2018-12-18T14:47:33.909Z,13.07
2018-12-18T14:50:02.384Z,6.77
2018-12-18T14:52:30.644Z,8.53
2018-12-18T14:54:59.417Z,11.07
2018-12-18T14:57:27.685Z,8.07
2018-12-18T14:59:55.814Z,13.67
2018-12-18T15:02:24.141Z,11.33
2018-12-18T15:04:52.340Z,13.67
2018-12-18T15:07:20.568Z,11.40
2018-12-18T15:09:49.887Z,12.37
2018-12-18T15:12:18.514Z,13.30
2018-12-18T15:14:46.754Z,13.10
2018-12-18T15:17:14.956Z,12.33
2018-12-18T15:19:43.248Z,9.90
2018-12-18T15:22:11.362Z,13.33
2018-12-18T15:24:40.234Z,10.03
2018-12-18T15:27:08.517Z,13.00
2018-12-18T15:29:36.757Z,8.37
2018-12-18T15:32:04.946Z,7.63
2018-12-18T15:34:33.065Z,6.30
2018-12-18T15:37:01.821Z,7.00
2018-12-18T15:39:30.628Z,9.90
2018-12-18T15:42:01.930Z,14.07
2018-12-18T15:44:31.002Z,8.80
2018-12-18T15:46:59.251Z,11.23
2018-12-18T15:49:27.392Z,11.17
2018-12-18T15:51:55.906Z,8.67
2018-12-18T15:54:24.689Z,7.37
2018-12-18T15:56:52.943Z,9.10
2018-12-18T15:59:21.328Z,13.80
2018-12-18T16:01:49.515Z,9.53
2018-12-18T16:04:17.644Z,12.53
2018-12-18T16:06:45.876Z,11.00
2018-12-18T16:09:14.613Z,11.63
2018-12-18T16:11:42.864Z,10.30
2018-12-18T16:14:11.517Z,10.50
2018-12-18T16:16:41.698Z,11.20
2018-12-18T16:19:10.156Z,12.23
2018-12-18T16:21:38.814Z,7.80
2018-12-18T16:24:07.005Z,13.53
2018-12-18T16:26:35.157Z,7.87
2018-12-18T16:29:03.323Z,7.50
2018-12-18T16:31:31.577Z,14.93
2018-12-18T16:33:59.700Z,9.70
2018-12-18T16:36:27.854Z,12.37
2018-12-18T16:38:56.153Z,10.70
2018-12-18T16:41:24.276Z,12.47
2018-12-18T16:43:52.519Z,7.80
2018-12-18T16:46:20.670Z,9.77
2018-12-18T16:48:48.824Z,7.20
2018-12-18T16:51:17.013Z,8.60
2018-12-18T16:53:45.509Z,9.03
2018-12-18T16:56:13.658Z,7.23
2018-12-18T16:58:41.849Z,8.70
2018-12-18T17:01:10.715Z,7.07
2018-12-18T17:03:39.127Z,7.73
2018-12-18T17:06:08.683Z,10.17
2018-12-18T17:08:36.785Z,7.33
2018-12-18T17:11:04.976Z,11.50
2018-12-18T17:13:33.179Z,9.93
2018-12-18T17:16:01.271Z,11.10
2018-12-18T17:18:29.389Z,7.50
2018-12-18T17:20:57.546Z,9.90
2018-12-18T17:23:25.665Z,7.23
2018-12-18T17:25:53.812Z,11.37
2018-12-18T17:28:21.930Z,9.50
2018-12-18T17:30:50.177Z,9.13
2018-12-18T17:33:18.309Z,7.30
2018-12-18T17:35:46.641Z,8.40
2018-12-18T17:38:15.011Z,6.10
2018-12-18T17:40:43.546Z,8.83
2018-12-18T17:43:11.871Z,6.83
2018-12-18T17:45:39.985Z,8.67
2018-12-18T17:48:08.208Z,6.27
2018-12-18T17:50:36.497Z,8.50
2018-12-18T17:53:04.663Z,6.47
2018-12-18T17:55:32.906Z,7.97
2018-12-18T17:58:01.007Z,7.97
2018-12-18T18:00:29.096Z,8.00
2018-12-18T18:02:57.303Z,7.33
2018-12-18T18:05:25.467Z,10.90
2018-12-18T18:07:54.383Z,7.33
2018-12-18T18:10:22.626Z,7.37
2018-12-18T18:12:52.771Z,5.20
2018-12-18T18:15:21.240Z,5.27
2018-12-18T18:17:49.534Z,7.37
2018-12-18T18:20:17.913Z,6.57
2018-12-18T18:22:46.190Z,8.00
2018-12-18T18:25:14.351Z,9.27
2018-12-18T18:27:42.508Z,7.53
2018-12-18T18:30:11.285Z,8.33
2018-12-18T18:32:40.363Z,6.90
2018-12-18T18:35:09.122Z,8.70
2018-12-18T18:37:37.414Z,8.23
2018-12-18T18:40:06.399Z,7.90
2018-12-18T18:42:34.648Z,10.83
2018-12-18T18:45:03.507Z,8.70
2018-12-18T18:47:32.022Z,8.93
2018-12-18T18:50:00.571Z,7.77
2018-12-18T18:52:29.216Z,8.63
2018-12-18T18:54:57.839Z,8.57
2018-12-18T18:57:26.298Z,8.37
2018-12-18T18:59:54.997Z,9.23
2018-12-18T19:02:23.509Z,9.63
2018-12-18T19:04:51.805Z,9.10
2018-12-18T19:07:20.034Z,11.60
2018-12-18T19:09:48.252Z,10.33
2018-12-18T19:12:16.499Z,8.03
2018-12-18T19:14:44.704Z,8.83
2018-12-18T19:17:12.813Z,7.83
2018-12-18T19:19:40.999Z,8.00
2018-12-18T19:22:09.177Z,7.70
2018-12-18T19:24:37.461Z,7.97
2018-12-18T19:27:05.621Z,9.97
2018-12-18T19:29:33.778Z,10.93
2018-12-18T19:32:01.930Z,6.73
2018-12-18T19:34:30.190Z,9.77
2018-12-18T19:36:58.625Z,8.83
2018-12-18T19:39:27.137Z,9.27
2018-12-18T19:41:55.264Z,9.03
2018-12-18T19:44:23.393Z,11.33
2018-12-18T19:46:51.489Z,6.70
2018-12-18T19:49:19.609Z,10.73
2018-12-18T19:51:47.934Z,10.83
2018-12-18T19:54:16.153Z,8.47
2018-12-18T19:56:44.441Z,10.63
2018-12-18T19:59:12.689Z,9.97
2018-12-18T20:01:40.891Z,7.20
2018-12-18T20:04:09.088Z,8.77
2018-12-18T20:06:37.392Z,10.47
2018-12-18T20:09:06.749Z,7.23
2018-12-18T20:11:35.192Z,12.33
2018-12-18T20:14:03.317Z,12.07
2018-12-18T20:16:31.548Z,8.07
2018-12-18T20:18:59.757Z,9.00
2018-12-18T20:21:27.883Z,7.20
2018-12-18T20:23:56.061Z,7.30
2018-12-18T20:26:24.298Z,11.07
2018-12-18T20:28:52.445Z,9.17
2018-12-18T20:31:20.585Z,8.83
2018-12-18T20:33:48.723Z,10.27
2018-12-18T20:36:16.830Z,7.87
2018-12-18T20:38:45.068Z,7.93
2018-12-18T20:41:13.426Z,6.80
2018-12-18T20:43:41.638Z,8.67
2018-12-18T20:46:09.750Z,7.03
2018-12-18T20:48:37.936Z,8.50
2018-12-18T20:51:06.182Z,9.90
2018-12-18T20:53:34.343Z,8.33
2018-12-18T20:56:02.502Z,7.83
2018-12-18T20:58:30.670Z,8.40
2018-12-18T21:00:58.814Z,10.17
2018-12-18T21:03:26.932Z,9.67
2018-12-18T21:05:55.098Z,9.90
2018-12-18T21:08:23.706Z,7.80
2018-12-18T21:10:52.089Z,7.87
2018-12-18T21:13:26.625Z,7.67
2018-12-18T21:15:54.985Z,12.77
2018-12-18T21:18:23.261Z,7.70
2018-12-18T21:20:52.667Z,7.50
2018-12-18T21:23:20.876Z,9.63
2018-12-18T21:25:49.015Z,7.47
2018-12-18T21:28:17.170Z,9.00
2018-12-18T21:30:45.373Z,10.47
2018-12-18T21:33:13.481Z,8.47
2018-12-18T21:35:42.697Z,7.93
2018-12-18T21:38:10.882Z,9.70
2018-12-18T21:40:39.254Z,9.77
2018-12-18T21:43:07.563Z,8.07
2018-12-18T21:45:35.669Z,8.13
2018-12-18T21:48:03.891Z,7.17
2018-12-18T21:50:32.097Z,7.60
2018-12-18T21:53:00.344Z,8.73
2018-12-18T21:55:28.598Z,8.47
2018-12-18T21:57:56.717Z,10.40
2018-12-18T22:00:24.868Z,7.97
2018-12-18T22:02:53.033Z,11.37
2018-12-18T22:05:21.229Z,8.93
2018-12-18T22:07:49.325Z,7.37
2018-12-18T22:10:17.475Z,8.40
2018-12-18T22:12:45.588Z,7.17
2018-12-18T22:15:13.697Z,7.27
2018-12-18T22:17:41.822Z,9.17
2018-12-18T22:20:10.019Z,7.57
2018-12-18T22:22:38.204Z,8.43
2018-12-18T22:25:06.377Z,9.93
2018-12-18T22:27:34.535Z,9.03
2018-12-18T22:30:02.676Z,8.27
2018-12-18T22:32:31.374Z,10.23
2018-12-18T22:34:59.539Z,7.70
2018-12-18T22:37:27.716Z,7.00
2018-12-18T22:39:55.817Z,10.23
2018-12-18T22:42:23.924Z,6.73
2018-12-18T22:44:52.062Z,8.57
2018-12-18T22:47:20.202Z,7.97
2018-12-18T22:49:48.359Z,7.80
2018-12-18T22:52:16.493Z,7.07
2018-12-18T22:54:44.633Z,8.47
2018-12-18T22:57:13.357Z,6.80
2018-12-18T22:59:41.540Z,6.07
2018-12-18T23:02:15.838Z,7.40
2018-12-18T23:04:44.210Z,8.73
2018-12-18T23:07:12.424Z,7.37
2018-12-18T23:09:41.173Z,6.00
2018-12-18T23:12:09.389Z,8.30
2018-12-18T23:14:37.547Z,6.80
2018-12-18T23:17:05.713Z,5.47
2018-12-18T23:19:33.930Z,5.20
2018-12-18T23:22:02.137Z,7.83
2018-12-18T23:24:30.313Z,6.80
2018-12-18T23:26:58.490Z,7.60
2018-12-18T23:29:26.692Z,7.20
2018-12-18T23:31:54.839Z,6.40
2018-12-18T23:34:22.968Z,6.90
2018-12-18T23:36:51.220Z,5.60
2018-12-18T23:39:19.402Z,6.83
2018-12-18T23:41:47.984Z,5.90
2018-12-18T23:44:16.248Z,7.83
2018-12-18T23:46:44.433Z,6.60
2018-12-18T23:49:12.546Z,7.73
2018-12-18T23:51:40.701Z,6.83
2018-12-18T23:54:08.852Z,6.17
2018-12-18T23:56:37.070Z,7.57
2018-12-18T23:59:05.245Z,6.23
